• Join FlightAware (Why Join?)
  • Login
  • US Flag 
05:51AM EDT


 

Airport Tracker/Info


-or-


 

Live Flight TrackerFlight Track Log ✈ DAL6035 ✈ 22-Apr-2013 ✈ KMHT - KLGA

Flight Track Log - Related Links

Times and Time Zones

All times are in EDT time to prevent confusion due to time zone crossing. See the DAL6035 flight status page for this flight to view local times or setup timezone preferences in your user account.

Time Position Orientation Groundspeed Altitude Reporting Facility
EDT Latitude Longitude Course Direction KTS MPH feet Rate Location/Type
02:34PM 42.9500 -71.4333 266° West 150 173 900  Level KA90
02:35PM 43.0167 -71.4000 20° North 213 245 3,700 1,740 Climbing KA90
02:37PM 42.6483 -71.7705 236° Southwest  Level Estimated
02:37PM 43.0822 -71.5106 309° West 266 306 5,900  Level Boston Center
02:38PM 42.5770 -71.8537 231° Southwest  Level Estimated
02:38PM 43.1247 -71.6008 303° West 273 314 8,900  Level Boston Center
02:39PM 42.5697 -71.9809 266° West  Level FlightAware Approximate
02:39PM 43.0961 -71.6839 245° Southwest 213 245 11,000  Level Boston Center
02:40PM 43.0256 -71.7556 217° Southwest 270 311 12,200 1,200 Climbing Boston Center
02:41PM 42.9697 -71.8214 221° Southwest 316 364 13,400 1,500 Climbing Boston Center
02:42PM 42.8786 -71.9217 219° Southwest 355 409 15,300 1,620 Climbing Boston Center
02:43PM 42.8039 -72.0072 220° Southwest 355 409 16,700 1,200 Climbing Boston Center
02:44PM 42.7269 -72.0925 219° Southwest 355 409 17,800 600 Climbing Boston Center
02:45PM 42.6564 -72.1719 220° Southwest 362 417 18,000 -240 Climbing Boston Center
02:46PM 42.5669 -72.2708 219° Southwest 373 429 17,400 -480 Descending Boston Center
02:47PM 42.4858 -72.3614 219° Southwest 367 422 17,000 -240 Descending Boston Center
02:48PM 42.4086 -72.4486 220° Southwest 367 422 17,000  Level Boston Center
02:49PM 42.3192 -72.5467 219° Southwest 373 429 17,000  Level Boston Center
02:50PM 42.2356 -72.6364 218° Southwest 380 437 17,000 -1,140 Level Boston Center
02:51PM 42.1478 -72.7508 224° Southwest 374 430 14,500 -1,500 Descending Boston Center
02:52PM 42.1017 -72.8458 237° Southwest 358 412 14,000 -300 Descending Boston Center
02:53PM 42.0386 -72.9461 230° Southwest 340 391 14,000  Level Boston Center
02:54PM 41.9842 -73.0322 230° Southwest 314 361 14,000  Level Boston Center
02:55PM 41.9272 -73.1208 229° Southwest 314 361 14,000  Level Boston Center
02:56PM 41.8664 -73.1928 221° Southwest 290 334 14,000  Level Boston Center
02:57PM 41.8075 -73.2617 221° Southwest 290 334 14,000  Level Boston Center
02:58PM 41.7467 -73.3333 221° Southwest 290 334 14,000 -480 Level Boston Center
02:59PM 41.6878 -73.4019 221° Southwest 290 334 13,100 -1,020 Descending Boston Center
03:00PM 41.6289 -73.4678 220° Southwest 285 328 12,000 -960 Descending Boston Center
03:02PM 41.5167 -73.5833 218° Southwest 272 313 10,400 -840 Descending New York TRACON
03:03PM 41.4500 -73.6333 209° Southwest 271 312 9,700 -720 Descending New York TRACON
03:04PM 41.3833 -73.6667 201° Southwest 268 308 9,000 -720 Descending New York TRACON
03:05PM 41.3167 -73.6833 191° South 258 297 8,300 -720 Descending New York TRACON
03:06PM 41.2500 -73.7167 201° Southwest 252 290 7,600 -720 Descending New York TRACON
03:07PM 41.1833 -73.7333 191° South 250 288 6,900 -900 Descending New York TRACON
03:08PM 41.1167 -73.7500 191° South 262 302 5,900 -1,020 Descending New York TRACON
03:09PM 41.0667 -73.8333 232° Southwest 269 310 4,900 -900 Descending New York TRACON
03:10PM 41.0167 -73.9000 225° Southwest 251 289 4,100 -480 Descending New York TRACON
03:11PM 40.9500 -73.9167 191° South 245 282 4,000 -60 Descending New York TRACON
03:12PM 40.8833 -73.9500 201° Southwest 250 288 4,000  Level New York TRACON
03:13PM 40.8167 -73.9833 201° Southwest 252 290 4,000  Level New York TRACON
03:14PM 40.7500 -74.0167 201° Southwest 248 285 4,000 -120 Level New York TRACON
03:15PM 40.7000 -74.0667 217° Southwest 205 236 3,800 -540 Descending New York TRACON
03:16PM 40.6500 -74.1000 207° Southwest 186 214 3,000 -420 Descending New York TRACON
03:17PM 40.6167 -74.0833 159° South 170 196 3,000 -60 Level New York TRACON
03:18PM 40.6000 -74.0333 114° Southeast 160 184 2,900 -180 Descending New York TRACON
03:19PM 40.6333 -74.0000 37° Northeast 148 170 2,700 -120 Descending New York TRACON
03:20PM 40.6667 -73.9833 21° North 154 177 2,700  Level New York TRACON